createdAt,value
2018-10-17T02:53:38.696Z,13.10
2018-10-17T02:56:07.148Z,13.75
2018-10-17T02:58:35.589Z,13.62
2018-10-17T03:01:04.041Z,15.20
2018-10-17T03:03:33.337Z,14.75
2018-10-17T03:06:01.891Z,13.98
2018-10-17T03:08:30.285Z,14.50
2018-10-17T03:10:58.807Z,14.23
2018-10-17T03:13:27.547Z,15.38
2018-10-17T03:15:56.015Z,13.50
2018-10-17T03:18:24.483Z,14.90
2018-10-17T03:20:52.877Z,14.30
2018-10-17T03:23:21.369Z,15.30
2018-10-17T03:25:49.781Z,14.23
2018-10-17T03:28:18.279Z,15.50
2018-10-17T03:30:46.813Z,14.53
2018-10-17T03:33:15.291Z,14.00
2018-10-17T03:35:43.791Z,15.68
2018-10-17T03:38:12.256Z,16.23
2018-10-17T03:40:40.712Z,14.55
2018-10-17T03:43:09.266Z,14.30
2018-10-17T03:45:37.703Z,15.40
2018-10-17T03:48:06.110Z,14.35
2018-10-17T03:50:34.646Z,15.20
2018-10-17T03:53:03.346Z,15.78
2018-10-17T03:55:31.773Z,15.03
2018-10-17T03:58:00.200Z,13.75
2018-10-17T04:00:28.678Z,14.73
2018-10-17T04:02:57.132Z,14.40
2018-10-17T04:05:25.582Z,15.25
2018-10-17T04:07:54.055Z,14.95
2018-10-17T04:10:22.588Z,15.45
2018-10-17T04:12:51.138Z,13.05
2018-10-17T04:15:19.557Z,14.25
2018-10-17T04:17:47.900Z,13.60
2018-10-17T04:20:16.407Z,14.10
2018-10-17T04:22:51.612Z,13.55
2018-10-17T04:25:19.973Z,14.55
2018-10-17T04:27:48.449Z,13.60
2018-10-17T04:30:16.859Z,13.43
2018-10-17T04:32:45.371Z,13.45
2018-10-17T04:35:13.939Z,14.20
2018-10-17T04:37:42.266Z,14.70
2018-10-17T04:40:10.714Z,14.43
2018-10-17T04:42:39.143Z,14.45
2018-10-17T04:45:07.970Z,13.95
2018-10-17T04:47:36.687Z,14.63
2018-10-17T04:50:06.230Z,14.40
2018-10-17T04:52:34.648Z,14.68
2018-10-17T04:55:03.165Z,14.70
2018-10-17T04:57:31.533Z,13.98
2018-10-17T04:59:59.899Z,14.45
2018-10-17T05:02:28.162Z,14.40
2018-10-17T05:10:24.819Z,15.53
2018-10-17T05:12:53.326Z,15.32
2018-10-17T05:15:21.786Z,14.03
2018-10-17T05:17:49.885Z,15.60
2018-10-17T05:20:18.049Z,15.48
2018-10-17T05:22:46.249Z,16.27
2018-10-17T05:25:14.677Z,15.93
2018-10-17T05:27:42.681Z,17.10
2018-10-17T05:30:10.857Z,16.02
2018-10-17T05:32:39.045Z,16.12
2018-10-17T05:35:07.515Z,15.60
2018-10-17T05:37:35.748Z,17.60
2018-10-17T05:40:03.835Z,16.27
2018-10-17T05:42:32.021Z,14.60
2018-10-17T05:45:00.212Z,15.30
2018-10-17T05:47:28.416Z,14.85
2018-10-17T05:49:56.612Z,15.93
2018-10-17T05:52:24.798Z,15.85
2018-10-17T05:54:53.027Z,14.93
2018-10-17T05:57:21.273Z,15.85
2018-10-17T05:59:49.462Z,14.98
2018-10-17T06:02:20.372Z,14.47
2018-10-17T06:04:48.543Z,15.90
2018-10-17T06:07:17.211Z,15.65
2018-10-17T06:09:45.863Z,14.68
2018-10-17T06:12:14.115Z,15.03
2018-10-17T06:14:42.386Z,16.52
2018-10-17T06:17:10.608Z,16.12
2018-10-17T06:19:38.826Z,17.12
2018-10-17T06:22:07.063Z,15.85
2018-10-17T06:24:35.403Z,15.85
2018-10-17T06:27:03.662Z,16.62
2018-10-17T06:29:31.994Z,15.68
2018-10-17T06:32:00.193Z,15.25
2018-10-17T06:34:28.463Z,17.50
2018-10-17T06:36:56.739Z,16.87
2018-10-17T06:39:24.860Z,15.85
2018-10-17T06:41:53.067Z,15.68
2018-10-17T06:44:21.283Z,14.78
2018-10-17T06:46:49.522Z,15.60
2018-10-17T06:49:17.909Z,15.30
2018-10-17T06:51:46.060Z,15.80
2018-10-17T06:54:14.313Z,15.88
2018-10-17T06:56:42.752Z,16.50
2018-10-17T06:59:11.091Z,16.48
2018-10-17T07:01:40.683Z,16.10
2018-10-17T07:04:09.049Z,15.95
2018-10-17T07:06:37.227Z,16.65
2018-10-17T07:09:07.963Z,16.17
2018-10-17T07:11:36.438Z,15.90
2018-10-17T07:14:04.987Z,15.10
2018-10-17T07:16:33.302Z,15.75
2018-10-17T07:19:01.563Z,15.75
2018-10-17T07:21:30.410Z,16.13
2018-10-17T07:23:58.676Z,16.87
2018-10-17T07:26:27.001Z,16.50
2018-10-17T07:28:56.283Z,16.37
2018-10-17T07:31:25.405Z,16.33
2018-10-17T07:33:53.937Z,16.00
2018-10-17T07:36:23.067Z,17.00
2018-10-17T07:38:51.606Z,14.83
2018-10-17T07:41:19.985Z,15.13
2018-10-17T07:43:48.531Z,15.50
2018-10-17T07:46:17.097Z,15.40
2018-10-17T07:48:45.567Z,15.00
2018-10-17T07:51:14.179Z,15.53
2018-10-17T07:53:42.624Z,15.40
2018-10-17T07:56:11.608Z,15.63
2018-10-17T07:58:39.964Z,16.57
2018-10-17T08:01:08.497Z,16.30
2018-10-17T08:03:36.889Z,16.60
2018-10-17T08:06:06.025Z,15.80
2018-10-17T08:08:34.391Z,15.50
2018-10-17T08:11:02.707Z,16.73
2018-10-17T08:13:31.205Z,16.87
2018-10-17T08:15:59.522Z,15.70
2018-10-17T08:18:27.967Z,15.63
2018-10-17T08:20:56.345Z,16.20
2018-10-17T08:23:24.811Z,16.50
2018-10-17T08:25:53.215Z,16.10
2018-10-17T08:28:21.670Z,16.67
2018-10-17T08:30:49.966Z,16.70
2018-10-17T08:33:18.640Z,16.43
2018-10-17T08:35:47.116Z,16.20
2018-10-17T08:38:15.415Z,17.23
2018-10-17T08:40:43.774Z,15.10
2018-10-17T08:43:12.186Z,17.27
2018-10-17T08:45:40.751Z,15.80
2018-10-17T08:48:09.417Z,14.10
2018-10-17T08:50:37.952Z,14.30
2018-10-17T08:53:06.421Z,13.60
2018-10-17T08:55:34.863Z,14.00
2018-10-17T08:58:03.536Z,13.33
2018-10-17T09:00:32.334Z,13.40
2018-10-17T09:03:00.816Z,12.43
2018-10-17T09:05:29.479Z,13.13
2018-10-17T09:07:58.107Z,13.40
2018-10-17T09:10:26.597Z,12.30
2018-10-17T09:12:55.142Z,12.80
2018-10-17T09:15:23.683Z,12.90
2018-10-17T09:17:52.145Z,12.10
2018-10-17T09:20:20.948Z,11.83
2018-10-17T09:22:49.420Z,11.60
2018-10-17T09:25:18.033Z,11.40
2018-10-17T09:27:46.653Z,11.97
2018-10-17T09:30:15.212Z,11.77
2018-10-17T09:32:43.610Z,11.00
2018-10-17T09:35:12.557Z,11.23
2018-10-17T09:37:40.868Z,11.87
2018-10-17T09:40:10.248Z,11.27
2018-10-17T09:42:38.808Z,11.90
2018-10-17T09:45:08.030Z,11.20
2018-10-17T09:47:36.255Z,11.93
2018-10-17T09:50:08.639Z,11.57
2018-10-17T09:52:37.072Z,11.20
2018-10-17T09:55:05.979Z,11.20
2018-10-17T09:57:34.431Z,10.90
2018-10-17T10:00:03.209Z,11.33
2018-10-17T10:02:31.733Z,10.40
2018-10-17T10:05:00.139Z,11.50
2018-10-17T10:07:28.657Z,10.47
2018-10-17T10:09:57.098Z,11.80
2018-10-17T10:12:25.602Z,10.87
2018-10-17T10:14:53.943Z,11.67
2018-10-17T10:17:33.600Z,10.70
2018-10-17T10:20:01.826Z,11.63
2018-10-17T10:22:30.202Z,11.70
2018-10-17T10:24:58.696Z,12.00
2018-10-17T10:27:27.204Z,11.70
2018-10-17T10:29:55.576Z,12.90
2018-10-17T10:32:23.743Z,13.77
2018-10-17T10:34:52.131Z,12.80
2018-10-17T10:37:20.430Z,12.40
2018-10-17T10:39:49.305Z,13.10
2018-10-17T10:42:17.841Z,13.97
2018-10-17T10:44:46.124Z,13.70
2018-10-17T10:47:14.395Z,13.43
2018-10-17T10:49:42.832Z,13.07
2018-10-17T10:52:11.219Z,13.40
2018-10-17T10:54:39.567Z,14.17
2018-10-17T10:57:07.879Z,12.93
2018-10-17T10:59:36.320Z,12.57
2018-10-17T11:02:04.512Z,12.90
2018-10-17T11:04:32.672Z,11.97
2018-10-17T11:07:00.963Z,12.17
2018-10-17T11:09:29.306Z,12.03
2018-10-17T11:11:57.526Z,12.33
2018-10-17T11:14:25.899Z,11.30
2018-10-17T11:16:54.084Z,10.83
2018-10-17T11:19:22.343Z,12.90
2018-10-17T11:21:50.702Z,12.60
2018-10-17T11:24:18.910Z,12.00
2018-10-17T11:26:47.214Z,12.10
2018-10-17T11:29:15.587Z,12.07
2018-10-17T11:31:43.872Z,11.83
2018-10-17T11:34:12.105Z,12.03
2018-10-17T11:36:40.385Z,11.50
2018-10-17T11:39:09.283Z,10.97
2018-10-17T11:41:38.092Z,11.37
2018-10-17T11:44:06.608Z,10.33
2018-10-17T11:46:34.920Z,10.53
2018-10-17T11:49:04.082Z,10.77
2018-10-17T11:51:32.570Z,9.17
2018-10-17T11:54:01.040Z,9.60
2018-10-17T11:56:29.254Z,9.43
2018-10-17T11:58:57.593Z,8.23
2018-10-17T12:01:25.767Z,7.70
2018-10-17T12:03:54.272Z,6.90
2018-10-17T12:06:22.360Z,8.50
2018-10-17T12:08:50.634Z,6.90
2018-10-17T12:11:18.936Z,7.33
2018-10-17T12:13:47.174Z,6.60
2018-10-17T12:16:15.375Z,7.33
2018-10-17T12:18:44.314Z,6.90
2018-10-17T12:21:12.695Z,6.53
2018-10-17T12:23:40.759Z,6.70
2018-10-17T12:26:09.008Z,6.70
2018-10-17T12:28:37.420Z,5.83
2018-10-17T12:31:06.020Z,6.10
2018-10-17T12:33:34.281Z,6.57
2018-10-17T12:36:02.593Z,5.73
2018-10-17T12:38:31.019Z,5.67
2018-10-17T12:40:59.627Z,6.33
2018-10-17T12:43:27.786Z,5.50
2018-10-17T12:45:56.220Z,5.80
2018-10-17T12:48:24.551Z,5.20
2018-10-17T12:50:52.902Z,4.90
2018-10-17T12:53:21.462Z,4.40
2018-10-17T12:55:49.718Z,4.73
2018-10-17T12:58:18.341Z,4.90
2018-10-17T13:00:46.827Z,4.80
2018-10-17T13:03:15.295Z,4.80
2018-10-17T13:05:43.777Z,6.00
2018-10-17T13:08:13.004Z,5.80
2018-10-17T13:10:42.103Z,6.30
2018-10-17T13:13:10.775Z,6.27
2018-10-17T13:15:39.280Z,6.50
2018-10-17T13:18:07.779Z,6.63
2018-10-17T13:20:39.430Z,6.20
2018-10-17T13:23:07.919Z,5.20
2018-10-17T13:25:36.906Z,6.27
2018-10-17T13:28:05.951Z,6.10
2018-10-17T13:30:34.676Z,6.60
2018-10-17T13:33:03.290Z,5.60
2018-10-17T13:35:31.931Z,5.67
2018-10-17T13:38:00.485Z,5.17
2018-10-17T13:40:29.112Z,5.57
2018-10-17T13:42:57.744Z,5.73
2018-10-17T13:45:26.264Z,5.17
2018-10-17T13:47:54.780Z,6.40
2018-10-17T13:50:23.419Z,6.37
2018-10-17T13:52:52.116Z,5.80
2018-10-17T13:55:20.832Z,5.90
2018-10-17T13:57:49.597Z,5.60
2018-10-17T14:00:18.079Z,7.23
2018-10-17T14:02:47.859Z,6.20
2018-10-17T14:05:16.572Z,6.20
2018-10-17T14:07:48.823Z,6.43
2018-10-17T14:10:18.389Z,6.80
2018-10-17T14:12:47.941Z,7.10
2018-10-17T14:15:16.708Z,6.00
2018-10-17T14:17:48.502Z,5.97
2018-10-17T14:20:19.302Z,6.43
2018-10-17T14:36:46.901Z,7.10
2018-10-17T14:39:15.490Z,6.70
2018-10-17T14:41:43.892Z,6.50
2018-10-17T14:44:12.758Z,6.90
2018-10-17T14:46:41.298Z,6.50
2018-10-17T14:49:09.987Z,6.60
2018-10-17T14:51:38.581Z,5.57
2018-10-17T14:54:07.286Z,6.00
2018-10-17T14:56:35.875Z,6.70
2018-10-17T14:59:04.844Z,6.40
2018-10-17T15:01:33.155Z,6.10
2018-10-17T15:04:01.825Z,6.73
2018-10-17T15:06:30.538Z,6.00
2018-10-17T15:08:59.408Z,5.63
2018-10-17T15:11:28.148Z,5.87
2018-10-17T15:13:56.773Z,6.10
2018-10-17T15:16:25.808Z,6.73
2018-10-17T15:18:54.331Z,6.40
2018-10-17T15:21:23.212Z,6.13
2018-10-17T15:23:51.706Z,6.30
2018-10-17T15:26:19.991Z,5.97
2018-10-17T15:28:48.412Z,6.60
2018-10-17T15:31:17.067Z,7.07
2018-10-17T15:33:45.534Z,6.93
2018-10-17T15:36:14.076Z,7.00
2018-10-17T15:38:42.543Z,6.60
2018-10-17T15:41:11.461Z,6.50
2018-10-17T15:43:39.897Z,6.90
2018-10-17T15:46:08.514Z,6.07
2018-10-17T15:48:36.931Z,7.23
2018-10-17T15:51:05.404Z,6.20
2018-10-17T15:53:33.731Z,6.50
2018-10-17T15:56:02.062Z,6.40
2018-10-17T15:58:30.445Z,6.20
2018-10-17T16:00:58.725Z,5.70
2018-10-17T16:03:27.146Z,6.23
2018-10-17T16:05:55.584Z,6.77
2018-10-17T16:08:23.935Z,7.10
2018-10-17T16:10:52.388Z,6.47
2018-10-17T16:13:20.848Z,7.07
2018-10-17T16:15:49.226Z,6.37
2018-10-17T16:18:17.669Z,7.03
2018-10-17T16:20:45.971Z,7.40
2018-10-17T16:23:14.531Z,7.10
2018-10-17T16:25:43.426Z,7.30
2018-10-17T16:28:11.819Z,7.33
2018-10-17T16:30:40.321Z,7.67
2018-10-17T16:33:08.883Z,6.93
2018-10-17T16:35:38.053Z,6.30
2018-10-17T16:38:06.445Z,7.00
2018-10-17T16:40:34.735Z,7.00
2018-10-17T16:43:02.984Z,8.37
2018-10-17T16:45:31.183Z,7.67
2018-10-17T16:47:59.424Z,8.43
2018-10-17T16:50:27.831Z,7.73
2018-10-17T16:52:55.989Z,7.30
2018-10-17T16:55:24.294Z,7.80
2018-10-17T16:57:52.547Z,7.93
2018-10-17T17:00:20.710Z,8.00
2018-10-17T17:02:49.131Z,8.30
2018-10-17T17:05:17.624Z,8.20
2018-10-17T17:07:46.091Z,8.57
2018-10-17T17:10:14.748Z,7.83
2018-10-17T17:12:43.199Z,7.90
2018-10-17T17:15:11.671Z,8.30
2018-10-17T17:17:39.873Z,10.50
2018-10-17T17:20:09.417Z,12.57
2018-10-17T17:22:38.057Z,11.90
2018-10-17T17:25:06.603Z,10.13
2018-10-17T17:27:35.026Z,11.63
2018-10-17T17:30:03.277Z,12.33
2018-10-17T17:32:31.388Z,11.33
2018-10-17T17:34:59.731Z,10.80
2018-10-17T17:37:27.918Z,10.10
2018-10-17T17:39:56.099Z,8.93
2018-10-17T17:42:24.413Z,9.17
2018-10-17T17:44:52.876Z,9.40
2018-10-17T17:47:22.102Z,10.60
2018-10-17T17:49:50.572Z,10.17
2018-10-17T17:52:19.021Z,10.30
2018-10-17T17:54:47.321Z,9.30
2018-10-17T17:57:15.536Z,9.70
2018-10-17T17:59:43.725Z,18.63
2018-10-17T18:02:12.491Z,12.67
2018-10-17T18:04:40.934Z,10.47
2018-10-17T18:07:09.248Z,11.00
2018-10-17T18:09:37.506Z,10.47
2018-10-17T18:12:05.903Z,11.50
2018-10-17T18:14:34.404Z,17.80
2018-10-17T18:17:02.916Z,11.83
2018-10-17T18:19:31.474Z,10.83
2018-10-17T18:21:59.774Z,11.47
2018-10-17T18:24:32.039Z,9.83
2018-10-17T18:27:00.387Z,9.73
2018-10-17T18:29:29.643Z,10.10
2018-10-17T18:31:57.849Z,10.17
2018-10-17T18:34:26.974Z,10.63
2018-10-17T18:39:29.947Z,12.57
2018-10-17T18:42:01.741Z,12.10
2018-10-17T18:44:30.613Z,10.77
2018-10-17T18:46:59.421Z,10.53
2018-10-17T18:49:27.631Z,11.47
2018-10-17T18:51:55.942Z,10.30
2018-10-17T18:54:24.246Z,10.73
2018-10-17T18:56:52.643Z,11.33
2018-10-17T18:59:21.087Z,10.50
2018-10-17T19:01:49.566Z,10.47
2018-10-17T19:04:17.903Z,11.00
2018-10-17T19:06:46.914Z,11.07
2018-10-17T19:09:15.547Z,11.43
2018-10-17T19:11:43.894Z,12.23
2018-10-17T19:14:12.451Z,11.30
2018-10-17T19:16:48.862Z,11.37
2018-10-17T19:19:17.315Z,11.60
2018-10-17T19:21:45.808Z,12.20
2018-10-17T19:24:14.799Z,11.70
2018-10-17T19:26:43.122Z,12.60
2018-10-17T19:29:11.655Z,11.63
2018-10-17T19:31:40.055Z,12.87
2018-10-17T19:34:08.383Z,11.93
2018-10-17T19:36:36.857Z,10.70
2018-10-17T19:39:08.065Z,12.10
2018-10-17T19:41:36.535Z,12.30
2018-10-17T19:44:04.835Z,11.73
2018-10-17T19:46:33.387Z,11.23
2018-10-17T19:49:01.853Z,12.43
2018-10-17T19:51:30.256Z,12.53
2018-10-17T19:53:58.696Z,15.20
2018-10-17T19:56:27.473Z,14.03
2018-10-17T19:58:56.170Z,14.07
2018-10-17T20:01:24.907Z,24.07
2018-10-17T20:04:04.578Z,20.73
2018-10-17T20:06:33.365Z,15.60
2018-10-17T20:09:02.048Z,14.67
2018-10-17T20:11:31.243Z,14.10
2018-10-17T20:14:00.175Z,13.90
2018-10-17T20:16:28.674Z,13.70
2018-10-17T20:18:57.549Z,13.47
2018-10-17T20:21:26.230Z,14.37
2018-10-17T20:23:54.570Z,13.77
2018-10-17T20:26:23.216Z,13.50
2018-10-17T20:28:51.736Z,14.03
2018-10-17T20:31:19.979Z,14.43
2018-10-17T20:33:48.374Z,13.83
2018-10-17T20:36:17.561Z,14.00
2018-10-17T20:38:46.192Z,15.33
2018-10-17T20:41:14.458Z,14.27
2018-10-17T20:43:43.490Z,13.37
2018-10-17T20:46:11.691Z,13.90
2018-10-17T20:48:44.737Z,13.50
2018-10-17T20:51:13.072Z,15.10
2018-10-17T20:53:41.641Z,13.87
2018-10-17T20:56:10.205Z,16.00
2018-10-17T20:58:38.555Z,15.30
2018-10-17T21:01:06.992Z,14.63
2018-10-17T21:03:35.989Z,15.27
2018-10-17T21:06:05.392Z,15.27
2018-10-17T21:08:33.798Z,15.50
2018-10-17T21:11:02.302Z,16.97
2018-10-17T21:13:30.674Z,16.10
2018-10-17T21:16:00.230Z,15.77
2018-10-17T21:18:28.939Z,18.47
2018-10-17T21:20:57.203Z,17.30
2018-10-17T21:23:26.000Z,15.90
2018-10-17T21:25:54.476Z,17.03
2018-10-17T21:28:23.741Z,16.77
2018-10-17T21:30:52.770Z,16.20
2018-10-17T21:33:21.925Z,16.63
2018-10-17T21:35:50.975Z,15.07
2018-10-17T21:38:19.469Z,13.80
2018-10-17T21:40:47.682Z,14.30
2018-10-17T21:43:16.627Z,14.13
2018-10-17T21:45:44.998Z,13.93
2018-10-17T21:48:13.308Z,14.50
2018-10-17T21:50:41.726Z,14.13
2018-10-17T21:53:10.061Z,14.10
2018-10-17T21:55:38.359Z,14.90
2018-10-17T21:58:07.262Z,15.27
2018-10-17T22:00:36.148Z,15.97
2018-10-17T22:03:04.582Z,14.63
2018-10-17T22:05:32.866Z,13.97
2018-10-17T22:08:01.350Z,15.90
2018-10-17T22:10:29.703Z,14.70
2018-10-17T22:12:58.160Z,15.07
2018-10-17T22:15:26.507Z,15.10
2018-10-17T22:17:54.906Z,15.50
2018-10-17T22:20:23.387Z,15.10
2018-10-17T22:22:51.831Z,16.20
2018-10-17T22:25:20.300Z,15.53
2018-10-17T22:27:48.877Z,15.30
2018-10-17T22:30:17.311Z,15.13
2018-10-17T22:32:45.664Z,14.33
2018-10-17T22:35:13.976Z,14.10
2018-10-17T22:37:42.271Z,15.83
2018-10-17T22:40:10.623Z,16.77
2018-10-17T22:42:39.068Z,15.03
2018-10-17T22:45:07.584Z,17.20
2018-10-17T22:47:36.099Z,15.80
2018-10-17T22:50:04.788Z,17.10
2018-10-17T22:52:33.367Z,16.40
2018-10-17T22:55:01.728Z,17.53
2018-10-17T22:57:30.505Z,17.43
2018-10-17T22:59:58.882Z,17.73
2018-10-17T23:02:27.225Z,17.33
2018-10-17T23:04:55.767Z,16.27
2018-10-17T23:07:24.092Z,16.73
2018-10-17T23:09:52.509Z,16.60
2018-10-17T23:12:20.885Z,16.77
2018-10-17T23:14:49.411Z,17.43
2018-10-17T23:17:17.838Z,16.80
2018-10-17T23:19:46.103Z,16.73
2018-10-17T23:22:14.439Z,17.23
2018-10-17T23:24:42.724Z,15.73
2018-10-17T23:27:11.098Z,16.30
2018-10-17T23:29:39.382Z,17.00
2018-10-17T23:32:07.859Z,18.57
2018-10-17T23:34:36.050Z,16.27
2018-10-17T23:37:04.481Z,17.30
2018-10-17T23:39:32.833Z,17.77
2018-10-17T23:42:01.276Z,16.20
2018-10-17T23:44:29.635Z,16.67
2018-10-17T23:46:58.099Z,17.90
2018-10-17T23:49:26.388Z,16.23
2018-10-17T23:51:54.753Z,16.90
2018-10-17T23:54:23.197Z,16.60
2018-10-17T23:56:51.502Z,16.80
2018-10-17T23:59:19.823Z,15.57
